Terminal Aerodrome Forecast
Issued by NWS Charleston, WV

Current Version | Previous Version | Graphics & Text | Print | Product List | Glossary On
Versions: 1 2 3 4 5 6 7 8 9 10 11 12 13 14 15 16 17 18 19 20 21 22 23 24 25 26 27
000
FTUS41 KRLX 291100
TAFEKN
TAF
KEKN 291128Z 2912/3012 00000KT 5SM -SHRA BR SCT015 BKN025
     FM291300 00000KT 5SM BR HZ BKN015
      TEMPO 2914/2916 6SM BR HZ BKN025
     FM291600 30007KT P6SM SCT045
     FM300000 VRB03KT P6SM FEW150
     FM300300 00000KT 4SM BR SCT250
     FM300800 00000KT 3/4SM BR SCT002 SCT045
     FM300900 00000KT 1/2SM FG VV001=

USA.gov is the U.S. government's official web portal to all federal, state and local government web resources and services.